| 基因ID | taxid | GeneDate LocusTag | Symbol Synonyms | Symbolfna Fullnamefna | dbXrefs | chromosome maplocation | description | genetype fnastatus | Otherdesignations | Featuretype |
| 111533018 | 591936 | 20200101 | LOC111533018 | 21 | cytochrome c oxidase assembly protein COX16 homolog, mitochondrial pseudogene | pseudo | ||||
| 111533022 | 591936 | 20200101 | PPP4R2 | Ensembl:ENSPTEG00000029810 | 2 | protein phosphatase 4 regulatory subunit 2 | protein-coding | serine/threonine-protein phosphatase 4 regulatory subunit 2 | ||
| 111533032 | 591936 | 20200101 | LOC111533032 | Un | uncharacterized LOC111533032 | ncRNA | ||||
| 111533033 | 591936 | 20200101 | LOC111533033 GIMAP7 | Un | GTPase IMAP family member 7 | protein-coding | ||||
| 111533035 | 591936 | 20200101 | LOC111533035 | Un | uncharacterized LOC111533035 | ncRNA | ||||
| 111533038 | 591936 | 20200101 | ZNF324B | 21 | zinc finger protein 324B | protein-coding | ||||
| 111533039 | 591936 | 20200101 | EBLN2 | 2 | endogenous Bornavirus like nucleoprotein 2 | protein-coding | LOW QUALITY PROTEIN: endogenous Bornavirus-like nucleoprotein 2 | |||
| 111533042 | 591936 | 20200101 | LOC111533042 | Un | DNA topoisomerase 3-alpha-like | protein-coding | ||||
| 111533043 | 591936 | 20200101 | LOC111533043 | Un | histone H2A.Z-like | protein-coding | ||||
| 111533048 | 591936 | 20200101 | GXYLT2 | 2 | glucoside xylosyltransferase 2 | protein-coding | ||||
| 111533049 | 591936 | 20200101 | LOC111533049 | Un | ATP synthase epsilon chain-like | protein-coding | uncharacterized protein LOC111533049 | |||
| 111533050 | 591936 | 20200101 | LOC111533050 | Un | uncharacterized LOC111533050 | ncRNA | ||||
| 111533052 | 591936 | 20200101 | LOC111533052 | Un | protocadherin alpha-6-like | pseudo | ||||
| 111533055 | 591936 | 20200101 | LOC111533055 | Un | glucoside xylosyltransferase 1 pseudogene | pseudo | ||||
| 111533056 | 591936 | 20200101 | LOC111533056 | Un | uncharacterized lipoprotein SSP0535-like | protein-coding | uncharacterized protein LOC111533056 | |||
| 111533058 | 591936 | 20200101 | LOC111533058 | Un | uncharacterized LOC111533058 | ncRNA | ||||
| 111533059 | 591936 | 20200101 | LOC111533059 | 2 | 26S proteasome non-ATPase regulatory subunit 12 pseudogene | pseudo | ||||
| 111533067 | 591936 | 20210313 | MUC3A | 8 | mucin 3A, cell surface associated | protein-coding | mucin-3A | |||
| 111533068 | 591936 | 20200101 | SHQ1 | Ensembl:ENSPTEG00000029743 | 2 | SHQ1, H/ACA ribonucleoprotein assembly factor | protein-coding | protein SHQ1 homolog | ||
| 111533076 | 591936 | 20200101 | LOC111533076 | Un | putative uncharacterized protein DDB_G0282133 | protein-coding | ||||
| 111533079 | 591936 | 20200101 | LOC111533079 | Un | uncharacterized LOC111533079 | protein-coding | uncharacterized protein LOC111533079 | |||
| 111533080 | 591936 | 20210212 | RYBP | Ensembl:ENSPTEG00000029685 | 2 | RING1 and YY1 binding protein | protein-coding | RING1 and YY1-binding protein | ||
| 111533090 | 591936 | 20200101 | LOC111533090 | Un | coiled-coil domain-containing protein 137 pseudogene | pseudo | ||||
| 111533093 | 591936 | 20200101 | LOC111533093 | Un | uncharacterized protein DDB_G0271670-like | pseudo | ||||
| 111533096 | 591936 | 20200101 | LOC111533096 | Un | uncharacterized LOC111533096 | ncRNA | ||||
| 111533101 | 591936 | 20200101 | LOC111533101 | 2 | uncharacterized LOC111533101 | ncRNA | ||||
| 111533104 | 591936 | 20200101 | LOC111533104 | 1 | late cornified envelope protein 2A | protein-coding | ||||
| 111533110 | 591936 | 20200101 | LOC111533110 | 2 | uncharacterized LOC111533110 | ncRNA | ||||
| 111533118 | 591936 | 20200101 | LOC111533118 | Un | zinc finger protein 185 | protein-coding | ||||
| 111533120 | 591936 | 20200101 | LOC111533120 | Un | glucose-6-phosphate 1-dehydrogenase-like | protein-coding | ||||
| 111533122 | 591936 | 20200101 | LOC111533122 | Un | uncharacterized LOC111533122 | ncRNA | ||||
| 111533127 | 591936 | 20200101 | LOC111533127 | Ensembl:ENSPTEG00000000973 | 2 | U6 spliceosomal RNA | snRNA | |||
| 111533128 | 591936 | 20200101 | LOC111533128 | 8 | 40S ribosomal protein SA-like | pseudo | ||||
| 111533129 | 591936 | 20200101 | LOC111533129 | Un | neurotrophin-4-like | pseudo | ||||
| 111533130 | 591936 | 20200101 | LOC111533130 | Un | zinc finger protein 479-like | protein-coding | LOW QUALITY PROTEIN: zinc finger protein 479-like | |||
| 111533131 | 591936 | 20200101 | LOC111533131 | 6 | immunoglobulin heavy variable 3-74-like | pseudo | ||||
| 111533133 | 591936 | 20200101 | LOC111533133 | 9 | small nuclear ribonucleoprotein Sm D3 pseudogene | pseudo | ||||
| 111533137 | 591936 | 20200101 | LOC111533137 | 4 | small ubiquitin-related modifier 2 pseudogene | pseudo | ||||
| 111533139 | 591936 | 20200101 | LOC111533139 | 12 | deoxyuridine 5'-triphosphate nucleotidohydrolase, mitochondrial pseudogene | pseudo | ||||
| 111533147 | 591936 | 20200101 | LOC111533147 | Un | sorting and assembly machinery component 50 homolog pseudogene | pseudo | ||||
| 111533150 | 591936 | 20200101 | LOC111533150 | 21 | mannosyl-oligosaccharide 1,2-alpha-mannosidase IB pseudogene | pseudo | ||||
| 111533151 | 591936 | 20200919 | PROK2 | Ensembl:ENSPTEG00000029638 | 2 | prokineticin 2 | protein-coding | prokineticin-2 | ||
| 111533165 | 591936 | 20200101 | LOC111533165 | Un | uncharacterized LOC111533165 | ncRNA | ||||
| 111533170 | 591936 | 20200101 | GPR27 | Ensembl:ENSPTEG00000029574 | 2 | G protein-coupled receptor 27 | protein-coding | probable G-protein coupled receptor 27 | ||
| 111533172 | 591936 | 20200101 | LOC111533172 | Un | uncharacterized LOC111533172 | ncRNA | ||||
| 111533177 | 591936 | 20200101 | LOC111533177 | 19 | uncharacterized LOC111533177 | ncRNA | ||||
| 111533178 | 591936 | 20200101 | LOC111533178 | Un | 60 kDa heat shock protein, mitochondrial pseudogene | pseudo | ||||
| 111533181 | 591936 | 20210403 | NABP2 | Ensembl:ENSPTEG00000004420 | Un | nucleic acid binding protein 2 | protein-coding | SOSS complex subunit B1 | ||
| 111533182 | 591936 | 20210403 | EIF4E3 | Ensembl:ENSPTEG00000029549 | 2 | eukaryotic translation initiation factor 4E family member 3 | protein-coding | eukaryotic translation initiation factor 4E type 3 | ||
| 111533183 | 591936 | 20200101 | LOC111533183 | Un | serine/threonine-protein kinase STK11 pseudogene | pseudo |
| 维奥蛋白资源库 - 中文蛋白资源 CopyRight © 2010-2026 |